sensor_id;sensor_type;location;lat;lon;timestamp;temperature;humidity
19000;DHT22;9633;50.980;13.850;2022-10-26T00:00:38;6.80;99.90
19000;DHT22;9633;50.980;13.850;2022-10-26T00:02:10;6.80;99.90
19000;DHT22;9633;50.980;13.850;2022-10-26T00:03:44;6.80;99.90
19000;DHT22;9633;50.980;13.850;2022-10-26T00:05:17;6.80;99.90
19000;DHT22;9633;50.980;13.850;2022-10-26T00:06:51;6.70;99.90
19000;DHT22;9633;50.980;13.850;2022-10-26T00:08:24;6.60;99.90
19000;DHT22;9633;50.980;13.850;2022-10-26T00:09:56;6.60;99.90
19000;DHT22;9633;50.980;13.850;2022-10-26T00:11:29;6.60;99.90
19000;DHT22;9633;50.980;13.850;2022-10-26T00:13:04;6.60;99.90
19000;DHT22;9633;50.980;13.850;2022-10-26T00:14:36;6.60;99.90
19000;DHT22;9633;50.980;13.850;2022-10-26T00:16:11;6.60;99.90
19000;DHT22;9633;50.980;13.850;2022-10-26T00:17:45;6.60;99.90
19000;DHT22;9633;50.980;13.850;2022-10-26T00:19:19;6.60;99.90
19000;DHT22;9633;50.980;13.850;2022-10-26T00:20:52;6.70;99.90
19000;DHT22;9633;50.980;13.850;2022-10-26T00:22:27;6.70;99.90
19000;DHT22;9633;50.980;13.850;2022-10-26T00:24:00;6.60;99.90
19000;DHT22;9633;50.980;13.850;2022-10-26T00:25:33;6.50;99.90
19000;DHT22;9633;50.980;13.850;2022-10-26T00:27:06;6.40;99.90
19000;DHT22;9633;50.980;13.850;2022-10-26T00:28:39;6.40;99.90
19000;DHT22;9633;50.980;13.850;2022-10-26T00:30:11;6.40;99.90
19000;DHT22;9633;50.980;13.850;2022-10-26T00:31:45;6.40;99.90
19000;DHT22;9633;50.980;13.850;2022-10-26T00:33:18;6.40;99.90
19000;DHT22;9633;50.980;13.850;2022-10-26T00:34:51;6.40;99.90
19000;DHT22;9633;50.980;13.850;2022-10-26T00:36:24;6.40;99.90
19000;DHT22;9633;50.980;13.850;2022-10-26T00:37:59;6.40;99.90
19000;DHT22;9633;50.980;13.850;2022-10-26T00:39:32;6.50;99.90
19000;DHT22;9633;50.980;13.850;2022-10-26T00:41:05;6.60;99.90
19000;DHT22;9633;50.980;13.850;2022-10-26T00:42:38;6.70;99.90
19000;DHT22;9633;50.980;13.850;2022-10-26T00:46:35;6.90;99.90
19000;DHT22;9633;50.980;13.850;2022-10-26T00:48:21;6.90;99.90
19000;DHT22;9633;50.980;13.850;2022-10-26T00:49:56;6.90;99.90
19000;DHT22;9633;50.980;13.850;2022-10-26T00:51:32;6.80;99.90
19000;DHT22;9633;50.980;13.850;2022-10-26T00:53:08;6.70;99.90
19000;DHT22;9633;50.980;13.850;2022-10-26T00:54:42;6.60;99.90
19000;DHT22;9633;50.980;13.850;2022-10-26T00:56:16;6.50;99.90
19000;DHT22;9633;50.980;13.850;2022-10-26T00:57:51;6.40;99.90
19000;DHT22;9633;50.980;13.850;2022-10-26T00:59:25;6.40;99.90
19000;DHT22;9633;50.980;13.850;2022-10-26T01:00:58;6.40;99.90
19000;DHT22;9633;50.980;13.850;2022-10-26T01:02:31;6.40;99.90
19000;DHT22;9633;50.980;13.850;2022-10-26T01:04:03;6.50;99.90
19000;DHT22;9633;50.980;13.850;2022-10-26T01:05:39;6.50;99.90
19000;DHT22;9633;50.980;13.850;2022-10-26T01:07:13;6.60;99.90
19000;DHT22;9633;50.980;13.850;2022-10-26T01:08:49;6.60;99.90
19000;DHT22;9633;50.980;13.850;2022-10-26T01:10:22;6.70;99.90
19000;DHT22;9633;50.980;13.850;2022-10-26T01:11:56;6.80;99.90
19000;DHT22;9633;50.980;13.850;2022-10-26T01:13:31;6.80;99.90
19000;DHT22;9633;50.980;13.850;2022-10-26T01:15:07;6.80;99.90
19000;DHT22;9633;50.980;13.850;2022-10-26T01:16:52;6.90;99.90
19000;DHT22;9633;50.980;13.850;2022-10-26T01:18:34;6.90;99.90
19000;DHT22;9633;50.980;13.850;2022-10-26T01:20:34;6.90;99.90
19000;DHT22;9633;50.980;13.850;2022-10-26T01:22:13;6.90;99.90
19000;DHT22;9633;50.980;13.850;2022-10-26T01:24:06;6.90;99.90
19000;DHT22;9633;50.980;13.850;2022-10-26T01:26:02;6.90;99.90
19000;DHT22;9633;50.980;13.850;2022-10-26T01:27:40;6.80;99.90
19000;DHT22;9633;50.980;13.850;2022-10-26T01:29:39;6.80;99.90
19000;DHT22;9633;50.980;13.850;2022-10-26T01:31:24;6.70;99.90
19000;DHT22;9633;50.980;13.850;2022-10-26T01:33:28;6.70;99.90
19000;DHT22;9633;50.980;13.850;2022-10-26T01:35:06;6.70;99.90
19000;DHT22;9633;50.980;13.850;2022-10-26T01:36:44;6.60;99.90
19000;DHT22;9633;50.980;13.850;2022-10-26T01:38:26;6.60;99.90
19000;DHT22;9633;50.980;13.850;2022-10-26T01:40:07;6.60;99.90
19000;DHT22;9633;50.980;13.850;2022-10-26T01:41:46;6.50;99.90
19000;DHT22;9633;50.980;13.850;2022-10-26T01:43:20;6.60;99.90
19000;DHT22;9633;50.980;13.850;2022-10-26T01:44:58;6.60;99.90
19000;DHT22;9633;50.980;13.850;2022-10-26T01:46:36;6.50;99.90
19000;DHT22;9633;50.980;13.850;2022-10-26T01:48:13;6.50;99.90
19000;DHT22;9633;50.980;13.850;2022-10-26T01:49:51;6.60;99.90
19000;DHT22;9633;50.980;13.850;2022-10-26T01:51:26;6.60;99.90
19000;DHT22;9633;50.980;13.850;2022-10-26T01:53:00;6.60;99.90
19000;DHT22;9633;50.980;13.850;2022-10-26T01:54:34;6.50;99.90
19000;DHT22;9633;50.980;13.850;2022-10-26T01:56:13;6.50;99.90
19000;DHT22;9633;50.980;13.850;2022-10-26T01:57:50;6.60;99.90
19000;DHT22;9633;50.980;13.850;2022-10-26T02:01:36;6.60;99.90
19000;DHT22;9633;50.980;13.850;2022-10-26T02:03:15;6.60;99.90
19000;DHT22;9633;50.980;13.850;2022-10-26T02:05:06;6.60;99.90
19000;DHT22;9633;50.980;13.850;2022-10-26T02:06:52;6.70;99.90
19000;DHT22;9633;50.980;13.850;2022-10-26T02:08:48;6.70;99.90
19000;DHT22;9633;50.980;13.850;2022-10-26T02:10:29;6.70;99.90
19000;DHT22;9633;50.980;13.850;2022-10-26T02:12:13;6.70;99.90
19000;DHT22;9633;50.980;13.850;2022-10-26T02:13:55;6.60;99.90
19000;DHT22;9633;50.980;13.850;2022-10-26T02:15:33;6.60;99.90
19000;DHT22;9633;50.980;13.850;2022-10-26T02:17:13;6.50;99.90
19000;DHT22;9633;50.980;13.850;2022-10-26T02:18:53;6.60;99.90
19000;DHT22;9633;50.980;13.850;2022-10-26T02:20:31;6.50;99.90
19000;DHT22;9633;50.980;13.850;2022-10-26T02:22:11;6.50;99.90
19000;DHT22;9633;50.980;13.850;2022-10-26T02:23:47;6.30;99.90
19000;DHT22;9633;50.980;13.850;2022-10-26T02:25:23;6.20;99.90
19000;DHT22;9633;50.980;13.850;2022-10-26T02:27:15;6.10;99.90
19000;DHT22;9633;50.980;13.850;2022-10-26T02:28:50;6.00;99.90
19000;DHT22;9633;50.980;13.850;2022-10-26T02:30:26;5.90;99.90
19000;DHT22;9633;50.980;13.850;2022-10-26T02:32:00;5.80;99.90
19000;DHT22;9633;50.980;13.850;2022-10-26T02:33:38;5.70;99.90
19000;DHT22;9633;50.980;13.850;2022-10-26T02:35:13;5.60;99.90
19000;DHT22;9633;50.980;13.850;2022-10-26T02:36:48;5.60;99.90
19000;DHT22;9633;50.980;13.850;2022-10-26T02:38:22;5.70;99.90
19000;DHT22;9633;50.980;13.850;2022-10-26T02:39:56;5.70;99.90
19000;DHT22;9633;50.980;13.850;2022-10-26T02:41:32;5.90;99.90
19000;DHT22;9633;50.980;13.850;2022-10-26T02:43:09;6.00;99.90
19000;DHT22;9633;50.980;13.850;2022-10-26T02:44:47;6.10;99.90
19000;DHT22;9633;50.980;13.850;2022-10-26T02:46:22;6.20;99.90
19000;DHT22;9633;50.980;13.850;2022-10-26T02:47:57;6.30;99.90
19000;DHT22;9633;50.980;13.850;2022-10-26T02:49:31;6.40;99.90
19000;DHT22;9633;50.980;13.850;2022-10-26T02:51:10;6.40;99.90
19000;DHT22;9633;50.980;13.850;2022-10-26T02:52:50;6.40;99.90
19000;DHT22;9633;50.980;13.850;2022-10-26T02:54:31;6.40;99.90
19000;DHT22;9633;50.980;13.850;2022-10-26T02:56:09;6.50;99.90
19000;DHT22;9633;50.980;13.850;2022-10-26T02:57:46;6.40;99.90
19000;DHT22;9633;50.980;13.850;2022-10-26T02:59:23;6.40;99.90
19000;DHT22;9633;50.980;13.850;2022-10-26T03:00:58;6.40;99.90
19000;DHT22;9633;50.980;13.850;2022-10-26T03:02:31;6.40;99.90
19000;DHT22;9633;50.980;13.850;2022-10-26T03:04:05;6.40;99.90
19000;DHT22;9633;50.980;13.850;2022-10-26T03:05:41;6.50;99.90
19000;DHT22;9633;50.980;13.850;2022-10-26T03:07:19;6.50;99.90
19000;DHT22;9633;50.980;13.850;2022-10-26T03:08:53;6.50;99.90
19000;DHT22;9633;50.980;13.850;2022-10-26T03:10:26;6.50;99.90
19000;DHT22;9633;50.980;13.850;2022-10-26T03:11:58;6.50;99.90
19000;DHT22;9633;50.980;13.850;2022-10-26T03:13:31;6.50;99.90
19000;DHT22;9633;50.980;13.850;2022-10-26T03:15:05;6.40;99.90
19000;DHT22;9633;50.980;13.850;2022-10-26T03:16:38;6.40;99.90
19000;DHT22;9633;50.980;13.850;2022-10-26T03:18:11;6.40;99.90
19000;DHT22;9633;50.980;13.850;2022-10-26T03:19:44;6.40;99.90
19000;DHT22;9633;50.980;13.850;2022-10-26T03:21:19;6.40;99.90
19000;DHT22;9633;50.980;13.850;2022-10-26T03:22:52;6.30;99.90
19000;DHT22;9633;50.980;13.850;2022-10-26T03:24:25;6.30;99.90
19000;DHT22;9633;50.980;13.850;2022-10-26T03:25:57;6.30;99.90
19000;DHT22;9633;50.980;13.850;2022-10-26T03:27:30;6.20;99.90
19000;DHT22;9633;50.980;13.850;2022-10-26T03:29:03;6.10;99.90
19000;DHT22;9633;50.980;13.850;2022-10-26T03:30:36;6.10;99.90
19000;DHT22;9633;50.980;13.850;2022-10-26T03:32:09;6.10;99.90
19000;DHT22;9633;50.980;13.850;2022-10-26T03:33:42;6.10;99.90
19000;DHT22;9633;50.980;13.850;2022-10-26T03:35:15;6.10;99.90
19000;DHT22;9633;50.980;13.850;2022-10-26T03:36:50;6.00;99.90
19000;DHT22;9633;50.980;13.850;2022-10-26T03:38:23;6.00;99.90
19000;DHT22;9633;50.980;13.850;2022-10-26T03:39:56;6.00;99.90
19000;DHT22;9633;50.980;13.850;2022-10-26T03:41:29;6.00;99.90
19000;DHT22;9633;50.980;13.850;2022-10-26T03:43:02;6.00;99.90
19000;DHT22;9633;50.980;13.850;2022-10-26T03:44:35;5.90;99.90
19000;DHT22;9633;50.980;13.850;2022-10-26T03:46:08;5.90;99.90
19000;DHT22;9633;50.980;13.850;2022-10-26T03:47:43;5.90;99.90
19000;DHT22;9633;50.980;13.850;2022-10-26T03:49:16;6.00;99.90
19000;DHT22;9633;50.980;13.850;2022-10-26T03:50:49;6.00;99.90
19000;DHT22;9633;50.980;13.850;2022-10-26T03:52:24;6.00;99.90
19000;DHT22;9633;50.980;13.850;2022-10-26T03:53:57;6.00;99.90
19000;DHT22;9633;50.980;13.850;2022-10-26T03:55:30;6.00;99.90
19000;DHT22;9633;50.980;13.850;2022-10-26T03:57:03;6.00;99.90
19000;DHT22;9633;50.980;13.850;2022-10-26T03:58:36;6.00;99.90
19000;DHT22;9633;50.980;13.850;2022-10-26T04:00:11;6.00;99.90
19000;DHT22;9633;50.980;13.850;2022-10-26T04:01:46;6.00;99.90
19000;DHT22;9633;50.980;13.850;2022-10-26T04:03:24;6.00;99.90
19000;DHT22;9633;50.980;13.850;2022-10-26T04:04:57;6.00;99.90
19000;DHT22;9633;50.980;13.850;2022-10-26T04:06:31;6.00;99.90
19000;DHT22;9633;50.980;13.850;2022-10-26T04:08:05;6.00;99.90
19000;DHT22;9633;50.980;13.850;2022-10-26T04:09:38;5.80;99.90
19000;DHT22;9633;50.980;13.850;2022-10-26T04:11:11;5.80;99.90
19000;DHT22;9633;50.980;13.850;2022-10-26T04:12:44;5.80;99.90
19000;DHT22;9633;50.980;13.850;2022-10-26T04:14:17;5.90;99.90
19000;DHT22;9633;50.980;13.850;2022-10-26T04:15:50;5.90;99.90
19000;DHT22;9633;50.980;13.850;2022-10-26T04:17:24;5.90;99.90
19000;DHT22;9633;50.980;13.850;2022-10-26T04:18:56;5.90;99.90
19000;DHT22;9633;50.980;13.850;2022-10-26T04:20:30;5.80;99.90
19000;DHT22;9633;50.980;13.850;2022-10-26T04:22:03;5.90;99.90
19000;DHT22;9633;50.980;13.850;2022-10-26T04:23:36;5.90;99.90
19000;DHT22;9633;50.980;13.850;2022-10-26T04:25:10;6.00;99.90
19000;DHT22;9633;50.980;13.850;2022-10-26T04:26:44;6.00;99.90
19000;DHT22;9633;50.980;13.850;2022-10-26T04:28:17;6.00;99.90
19000;DHT22;9633;50.980;13.850;2022-10-26T04:29:50;6.00;99.90
19000;DHT22;9633;50.980;13.850;2022-10-26T04:31:23;6.00;99.90
19000;DHT22;9633;50.980;13.850;2022-10-26T04:32:56;6.10;99.90
19000;DHT22;9633;50.980;13.850;2022-10-26T04:34:29;6.00;99.90
19000;DHT22;9633;50.980;13.850;2022-10-26T04:36:02;6.00;99.90
19000;DHT22;9633;50.980;13.850;2022-10-26T04:37:36;6.00;99.90
19000;DHT22;9633;50.980;13.850;2022-10-26T04:39:10;6.00;99.90
19000;DHT22;9633;50.980;13.850;2022-10-26T04:40:43;6.00;99.90
19000;DHT22;9633;50.980;13.850;2022-10-26T04:42:16;6.10;99.90
19000;DHT22;9633;50.980;13.850;2022-10-26T04:43:48;6.00;99.90
19000;DHT22;9633;50.980;13.850;2022-10-26T04:45:22;6.00;99.90
19000;DHT22;9633;50.980;13.850;2022-10-26T04:46:55;6.00;99.90
19000;DHT22;9633;50.980;13.850;2022-10-26T04:48:28;6.00;99.90
19000;DHT22;9633;50.980;13.850;2022-10-26T04:50:01;5.90;99.90
19000;DHT22;9633;50.980;13.850;2022-10-26T04:51:34;5.90;99.90
19000;DHT22;9633;50.980;13.850;2022-10-26T04:53:07;5.80;99.90
19000;DHT22;9633;50.980;13.850;2022-10-26T04:54:42;5.80;99.90
19000;DHT22;9633;50.980;13.850;2022-10-26T04:56:15;5.80;99.90
19000;DHT22;9633;50.980;13.850;2022-10-26T04:57:48;5.90;99.90
19000;DHT22;9633;50.980;13.850;2022-10-26T04:59:26;5.90;99.90
19000;DHT22;9633;50.980;13.850;2022-10-26T05:01:00;5.90;99.90
19000;DHT22;9633;50.980;13.850;2022-10-26T05:02:33;5.90;99.90
19000;DHT22;9633;50.980;13.850;2022-10-26T05:04:06;5.90;99.90
19000;DHT22;9633;50.980;13.850;2022-10-26T05:05:39;5.90;99.90
19000;DHT22;9633;50.980;13.850;2022-10-26T05:07:12;5.90;99.90
19000;DHT22;9633;50.980;13.850;2022-10-26T05:08:46;5.90;99.90
19000;DHT22;9633;50.980;13.850;2022-10-26T05:10:20;5.90;99.90
19000;DHT22;9633;50.980;13.850;2022-10-26T05:11:53;5.90;99.90
19000;DHT22;9633;50.980;13.850;2022-10-26T05:13:26;5.90;99.90
19000;DHT22;9633;50.980;13.850;2022-10-26T05:14:59;6.00;99.90
19000;DHT22;9633;50.980;13.850;2022-10-26T05:16:37;6.00;99.90
19000;DHT22;9633;50.980;13.850;2022-10-26T05:18:10;5.90;99.90
19000;DHT22;9633;50.980;13.850;2022-10-26T05:19:43;5.90;99.90
19000;DHT22;9633;50.980;13.850;2022-10-26T05:21:24;5.90;99.90
19000;DHT22;9633;50.980;13.850;2022-10-26T05:22:57;5.90;99.90
19000;DHT22;9633;50.980;13.850;2022-10-26T05:24:31;5.90;99.90
19000;DHT22;9633;50.980;13.850;2022-10-26T05:26:06;5.90;99.90
19000;DHT22;9633;50.980;13.850;2022-10-26T05:27:39;6.00;99.90
19000;DHT22;9633;50.980;13.850;2022-10-26T05:29:12;6.00;99.90
19000;DHT22;9633;50.980;13.850;2022-10-26T05:30:45;6.00;99.90
19000;DHT22;9633;50.980;13.850;2022-10-26T05:32:18;6.00;99.90
19000;DHT22;9633;50.980;13.850;2022-10-26T05:33:52;6.10;99.90
19000;DHT22;9633;50.980;13.850;2022-10-26T05:35:25;6.10;99.90
19000;DHT22;9633;50.980;13.850;2022-10-26T05:36:58;6.20;99.90
19000;DHT22;9633;50.980;13.850;2022-10-26T05:38:31;6.20;99.90
19000;DHT22;9633;50.980;13.850;2022-10-26T05:40:05;6.20;99.90
19000;DHT22;9633;50.980;13.850;2022-10-26T05:41:40;6.20;99.90
19000;DHT22;9633;50.980;13.850;2022-10-26T05:43:13;6.20;99.90
19000;DHT22;9633;50.980;13.850;2022-10-26T05:44:46;6.20;99.90
19000;DHT22;9633;50.980;13.850;2022-10-26T05:46:19;6.20;99.90
19000;DHT22;9633;50.980;13.850;2022-10-26T05:47:52;6.10;99.90
19000;DHT22;9633;50.980;13.850;2022-10-26T05:49:32;6.10;99.90
19000;DHT22;9633;50.980;13.850;2022-10-26T05:51:05;6.10;99.90
19000;DHT22;9633;50.980;13.850;2022-10-26T05:52:38;6.10;99.90
19000;DHT22;9633;50.980;13.850;2022-10-26T05:54:12;6.10;99.90
19000;DHT22;9633;50.980;13.850;2022-10-26T05:55:45;6.10;99.90
19000;DHT22;9633;50.980;13.850;2022-10-26T05:57:20;6.10;99.90
19000;DHT22;9633;50.980;13.850;2022-10-26T05:58:54;6.10;99.90
19000;DHT22;9633;50.980;13.850;2022-10-26T06:00:28;6.10;99.90
19000;DHT22;9633;50.980;13.850;2022-10-26T06:02:08;6.10;99.90
19000;DHT22;9633;50.980;13.850;2022-10-26T06:03:58;6.10;99.90
19000;DHT22;9633;50.980;13.850;2022-10-26T06:05:37;6.20;99.90
19000;DHT22;9633;50.980;13.850;2022-10-26T06:07:15;6.20;99.90
19000;DHT22;9633;50.980;13.850;2022-10-26T06:08:49;6.30;99.90
19000;DHT22;9633;50.980;13.850;2022-10-26T06:10:22;6.30;99.90
19000;DHT22;9633;50.980;13.850;2022-10-26T06:11:56;6.20;99.90
19000;DHT22;9633;50.980;13.850;2022-10-26T06:13:31;6.30;99.90
19000;DHT22;9633;50.980;13.850;2022-10-26T06:15:06;6.30;99.90
19000;DHT22;9633;50.980;13.850;2022-10-26T06:16:49;6.30;99.90
19000;DHT22;9633;50.980;13.850;2022-10-26T06:18:34;6.40;99.90
19000;DHT22;9633;50.980;13.850;2022-10-26T06:20:20;6.50;99.90
19000;DHT22;9633;50.980;13.850;2022-10-26T06:22:10;6.50;99.90
19000;DHT22;9633;50.980;13.850;2022-10-26T06:23:51;6.60;99.90
19000;DHT22;9633;50.980;13.850;2022-10-26T06:25:28;6.70;99.90
19000;DHT22;9633;50.980;13.850;2022-10-26T06:27:15;6.90;99.90
19000;DHT22;9633;50.980;13.850;2022-10-26T06:28:58;7.10;99.90
19000;DHT22;9633;50.980;13.850;2022-10-26T06:30:33;7.30;99.90
19000;DHT22;9633;50.980;13.850;2022-10-26T06:32:07;7.40;99.90
19000;DHT22;9633;50.980;13.850;2022-10-26T06:33:40;7.40;99.90
19000;DHT22;9633;50.980;13.850;2022-10-26T06:35:31;7.60;99.90
19000;DHT22;9633;50.980;13.850;2022-10-26T06:37:06;7.70;99.90
19000;DHT22;9633;50.980;13.850;2022-10-26T06:38:42;7.80;99.90
19000;DHT22;9633;50.980;13.850;2022-10-26T06:40:17;7.80;99.90
19000;DHT22;9633;50.980;13.850;2022-10-26T06:41:50;7.80;99.90
19000;DHT22;9633;50.980;13.850;2022-10-26T06:43:28;8.00;99.90
19000;DHT22;9633;50.980;13.850;2022-10-26T06:45:05;8.50;99.90
19000;DHT22;9633;50.980;13.850;2022-10-26T06:46:42;9.00;99.90
19000;DHT22;9633;50.980;13.850;2022-10-26T06:48:22;9.50;99.90
19000;DHT22;9633;50.980;13.850;2022-10-26T06:50:01;9.80;99.90
19000;DHT22;9633;50.980;13.850;2022-10-26T06:51:46;9.80;99.90
19000;DHT22;9633;50.980;13.850;2022-10-26T06:53:28;10.10;99.90
19000;DHT22;9633;50.980;13.850;2022-10-26T06:55:03;10.70;99.90
19000;DHT22;9633;50.980;13.850;2022-10-26T06:56:37;10.90;99.90
19000;DHT22;9633;50.980;13.850;2022-10-26T06:58:13;10.80;99.90
19000;DHT22;9633;50.980;13.850;2022-10-26T06:59:49;10.80;99.90
19000;DHT22;9633;50.980;13.850;2022-10-26T07:01:25;10.70;99.90
19000;DHT22;9633;50.980;13.850;2022-10-26T07:02:58;10.50;99.90
19000;DHT22;9633;50.980;13.850;2022-10-26T07:04:32;10.30;99.90
19000;DHT22;9633;50.980;13.850;2022-10-26T07:06:05;10.10;99.90
19000;DHT22;9633;50.980;13.850;2022-10-26T07:07:41;9.70;99.90
19000;DHT22;9633;50.980;13.850;2022-10-26T07:09:14;9.50;99.90
19000;DHT22;9633;50.980;13.850;2022-10-26T07:10:47;9.30;99.90
19000;DHT22;9633;50.980;13.850;2022-10-26T07:12:21;9.20;99.90
19000;DHT22;9633;50.980;13.850;2022-10-26T07:13:54;9.30;99.90
19000;DHT22;9633;50.980;13.850;2022-10-26T07:15:27;9.40;99.90
19000;DHT22;9633;50.980;13.850;2022-10-26T07:17:03;9.70;99.90
19000;DHT22;9633;50.980;13.850;2022-10-26T07:18:37;9.90;99.90
19000;DHT22;9633;50.980;13.850;2022-10-26T07:20:10;10.10;99.90
19000;DHT22;9633;50.980;13.850;2022-10-26T07:21:43;10.30;99.90
19000;DHT22;9633;50.980;13.850;2022-10-26T07:23:16;10.60;99.90
19000;DHT22;9633;50.980;13.850;2022-10-26T07:24:49;10.80;99.90
19000;DHT22;9633;50.980;13.850;2022-10-26T07:26:23;11.00;99.90
19000;DHT22;9633;50.980;13.850;2022-10-26T07:27:56;11.10;99.90
19000;DHT22;9633;50.980;13.850;2022-10-26T07:29:30;11.20;99.90
19000;DHT22;9633;50.980;13.850;2022-10-26T07:31:04;11.20;99.90
19000;DHT22;9633;50.980;13.850;2022-10-26T07:32:39;11.20;99.90
19000;DHT22;9633;50.980;13.850;2022-10-26T07:34:12;11.10;99.90
19000;DHT22;9633;50.980;13.850;2022-10-26T07:35:45;11.20;99.90
19000;DHT22;9633;50.980;13.850;2022-10-26T07:37:18;11.40;99.90
19000;DHT22;9633;50.980;13.850;2022-10-26T07:38:51;11.50;99.90
19000;DHT22;9633;50.980;13.850;2022-10-26T07:40:25;11.60;99.90
19000;DHT22;9633;50.980;13.850;2022-10-26T07:41:58;11.70;99.90
19000;DHT22;9633;50.980;13.850;2022-10-26T07:43:31;11.50;99.90
19000;DHT22;9633;50.980;13.850;2022-10-26T07:45:05;11.50;99.90
19000;DHT22;9633;50.980;13.850;2022-10-26T07:46:38;11.50;99.90
19000;DHT22;9633;50.980;13.850;2022-10-26T07:48:13;11.50;99.90
19000;DHT22;9633;50.980;13.850;2022-10-26T07:49:46;11.70;99.90
19000;DHT22;9633;50.980;13.850;2022-10-26T07:51:19;11.80;99.90
19000;DHT22;9633;50.980;13.850;2022-10-26T07:52:52;12.00;99.90
19000;DHT22;9633;50.980;13.850;2022-10-26T07:54:25;12.00;99.90
19000;DHT22;9633;50.980;13.850;2022-10-26T07:55:59;12.10;99.90
19000;DHT22;9633;50.980;13.850;2022-10-26T07:57:33;12.30;99.90
19000;DHT22;9633;50.980;13.850;2022-10-26T07:59:06;12.30;99.90
19000;DHT22;9633;50.980;13.850;2022-10-26T08:00:39;12.40;99.90
19000;DHT22;9633;50.980;13.850;2022-10-26T08:02:12;12.50;99.90
19000;DHT22;9633;50.980;13.850;2022-10-26T08:03:47;12.70;99.90
19000;DHT22;9633;50.980;13.850;2022-10-26T08:05:20;12.60;99.90
19000;DHT22;9633;50.980;13.850;2022-10-26T08:06:53;12.50;99.90
19000;DHT22;9633;50.980;13.850;2022-10-26T08:08:26;12.30;99.90
19000;DHT22;9633;50.980;13.850;2022-10-26T08:09:59;12.10;99.90
19000;DHT22;9633;50.980;13.850;2022-10-26T08:11:32;11.90;99.90
19000;DHT22;9633;50.980;13.850;2022-10-26T08:13:07;11.60;99.90
19000;DHT22;9633;50.980;13.850;2022-10-26T08:14:40;11.50;99.90
19000;DHT22;9633;50.980;13.850;2022-10-26T08:16:14;11.50;99.90
19000;DHT22;9633;50.980;13.850;2022-10-26T08:17:47;11.80;99.90
19000;DHT22;9633;50.980;13.850;2022-10-26T08:19:22;12.30;99.90
19000;DHT22;9633;50.980;13.850;2022-10-26T08:21:00;12.70;99.90
19000;DHT22;9633;50.980;13.850;2022-10-26T08:22:42;12.90;99.90
19000;DHT22;9633;50.980;13.850;2022-10-26T08:24:15;13.10;99.90
19000;DHT22;9633;50.980;13.850;2022-10-26T08:25:48;13.10;99.90
19000;DHT22;9633;50.980;13.850;2022-10-26T08:27:22;13.10;99.90
19000;DHT22;9633;50.980;13.850;2022-10-26T08:28:55;13.00;99.90
19000;DHT22;9633;50.980;13.850;2022-10-26T08:30:28;13.40;99.90
19000;DHT22;9633;50.980;13.850;2022-10-26T08:32:01;13.70;99.90
19000;DHT22;9633;50.980;13.850;2022-10-26T08:33:34;13.90;99.90
19000;DHT22;9633;50.980;13.850;2022-10-26T08:35:09;14.20;99.90
19000;DHT22;9633;50.980;13.850;2022-10-26T08:36:42;14.50;99.90
19000;DHT22;9633;50.980;13.850;2022-10-26T08:39:49;14.70;99.90
19000;DHT22;9633;50.980;13.850;2022-10-26T08:41:34;14.90;99.90
19000;DHT22;9633;50.980;13.850;2022-10-26T08:43:12;15.00;99.90
19000;DHT22;9633;50.980;13.850;2022-10-26T08:44:51;15.00;99.90
19000;DHT22;9633;50.980;13.850;2022-10-26T08:46:32;15.30;99.90
19000;DHT22;9633;50.980;13.850;2022-10-26T08:48:11;15.30;99.90
19000;DHT22;9633;50.980;13.850;2022-10-26T08:49:49;15.40;99.90
19000;DHT22;9633;50.980;13.850;2022-10-26T08:51:28;15.50;99.90
19000;DHT22;9633;50.980;13.850;2022-10-26T08:53:10;15.40;99.90
19000;DHT22;9633;50.980;13.850;2022-10-26T08:54:50;15.50;99.90
19000;DHT22;9633;50.980;13.850;2022-10-26T08:56:25;15.70;99.90
19000;DHT22;9633;50.980;13.850;2022-10-26T08:58:00;15.90;99.90
19000;DHT22;9633;50.980;13.850;2022-10-26T08:59:36;16.10;99.90
19000;DHT22;9633;50.980;13.850;2022-10-26T09:01:10;16.30;99.90
19000;DHT22;9633;50.980;13.850;2022-10-26T09:02:43;16.50;99.90
19000;DHT22;9633;50.980;13.850;2022-10-26T09:04:18;16.40;99.90
19000;DHT22;9633;50.980;13.850;2022-10-26T09:06:07;16.60;99.90
19000;DHT22;9633;50.980;13.850;2022-10-26T09:07:51;16.60;99.90
19000;DHT22;9633;50.980;13.850;2022-10-26T09:09:33;16.60;99.90
19000;DHT22;9633;50.980;13.850;2022-10-26T09:11:17;16.70;99.90
19000;DHT22;9633;50.980;13.850;2022-10-26T09:12:56;17.00;99.90
19000;DHT22;9633;50.980;13.850;2022-10-26T09:14:41;17.30;99.90
19000;DHT22;9633;50.980;13.850;2022-10-26T09:16:25;17.40;99.90
19000;DHT22;9633;50.980;13.850;2022-10-26T09:18:06;17.70;99.90
19000;DHT22;9633;50.980;13.850;2022-10-26T09:20:01;17.80;99.90
19000;DHT22;9633;50.980;13.850;2022-10-26T09:21:42;17.80;99.90
19000;DHT22;9633;50.980;13.850;2022-10-26T09:23:28;17.80;99.90
19000;DHT22;9633;50.980;13.850;2022-10-26T09:25:11;17.80;99.90
19000;DHT22;9633;50.980;13.850;2022-10-26T09:26:53;17.80;99.90
19000;DHT22;9633;50.980;13.850;2022-10-26T09:28:29;17.90;99.90
19000;DHT22;9633;50.980;13.850;2022-10-26T09:30:12;17.30;99.90
19000;DHT22;9633;50.980;13.850;2022-10-26T09:31:47;16.70;99.90
19000;DHT22;9633;50.980;13.850;2022-10-26T09:33:23;16.40;99.90
19000;DHT22;9633;50.980;13.850;2022-10-26T09:35:00;16.20;99.90
19000;DHT22;9633;50.980;13.850;2022-10-26T09:36:35;15.80;99.90
19000;DHT22;9633;50.980;13.850;2022-10-26T09:38:13;15.50;99.90
19000;DHT22;9633;50.980;13.850;2022-10-26T09:39:54;15.40;99.90
19000;DHT22;9633;50.980;13.850;2022-10-26T09:41:32;15.30;99.90
19000;DHT22;9633;50.980;13.850;2022-10-26T09:43:13;15.20;99.90
19000;DHT22;9633;50.980;13.850;2022-10-26T09:44:50;15.20;99.90
19000;DHT22;9633;50.980;13.850;2022-10-26T09:46:28;15.00;99.90
19000;DHT22;9633;50.980;13.850;2022-10-26T09:48:06;15.20;99.90
19000;DHT22;9633;50.980;13.850;2022-10-26T09:49:44;15.70;99.90
19000;DHT22;9633;50.980;13.850;2022-10-26T09:51:19;16.20;99.90
19000;DHT22;9633;50.980;13.850;2022-10-26T09:52:54;16.70;99.90
19000;DHT22;9633;50.980;13.850;2022-10-26T09:54:27;17.10;99.90
19000;DHT22;9633;50.980;13.850;2022-10-26T09:56:03;17.40;99.90
19000;DHT22;9633;50.980;13.850;2022-10-26T09:57:39;17.90;99.90
19000;DHT22;9633;50.980;13.850;2022-10-26T09:59:13;18.20;99.90
19000;DHT22;9633;50.980;13.850;2022-10-26T10:00:47;18.40;99.90
19000;DHT22;9633;50.980;13.850;2022-10-26T10:02:34;18.50;99.90
19000;DHT22;9633;50.980;13.850;2022-10-26T10:04:18;18.70;99.90
19000;DHT22;9633;50.980;13.850;2022-10-26T10:06:13;19.00;99.90
19000;DHT22;9633;50.980;13.850;2022-10-26T10:07:47;19.10;96.90
19000;DHT22;9633;50.980;13.850;2022-10-26T10:09:22;19.40;80.60
19000;DHT22;9633;50.980;13.850;2022-10-26T10:11:02;19.50;58.80
19000;DHT22;9633;50.980;13.850;2022-10-26T10:12:37;19.80;47.50
19000;DHT22;9633;50.980;13.850;2022-10-26T10:14:15;20.00;42.30
19000;DHT22;9633;50.980;13.850;2022-10-26T10:15:53;20.10;24.00
19000;DHT22;9633;50.980;13.850;2022-10-26T10:17:26;20.20;1.00
19000;DHT22;9633;50.980;13.850;2022-10-26T10:19:00;20.20;13.40
19000;DHT22;9633;50.980;13.850;2022-10-26T10:20:33;20.10;15.60